createdAt,value
2023-04-01T00:01:19.756Z,9.70
2023-04-01T00:03:49.561Z,9.70
2023-04-01T00:06:19.785Z,9.20
2023-04-01T00:08:48.552Z,9.40
2023-04-01T00:11:18.296Z,9.30
2023-04-01T00:13:49.689Z,9.10
2023-04-01T00:16:22.096Z,10.40
2023-04-01T00:18:51.966Z,8.60
2023-04-01T00:21:23.054Z,10.90
2023-04-01T00:23:52.277Z,11.30
2023-04-01T00:26:23.121Z,11.50
2023-04-01T00:28:52.306Z,10.70
2023-04-01T00:31:21.779Z,14.10
2023-04-01T00:33:50.741Z,14.20
2023-04-01T00:36:25.490Z,11.20
2023-04-01T00:38:54.259Z,13.30
2023-04-01T00:41:23.102Z,13.00
2023-04-01T00:43:53.205Z,15.30
2023-04-01T00:46:21.930Z,14.50
2023-04-01T00:48:56.576Z,14.60
2023-04-01T00:51:30.925Z,14.30
2023-04-01T00:54:02.948Z,14.70
2023-04-01T00:56:51.038Z,14.80
2023-04-01T00:59:28.463Z,13.80
2023-04-01T01:01:57.598Z,13.70
2023-04-01T01:04:32.568Z,13.20
2023-04-01T01:07:38.081Z,12.70
2023-04-01T01:10:40.146Z,11.40
2023-04-01T01:13:12.776Z,12.20
2023-04-01T01:16:12.124Z,11.90
2023-04-01T01:19:10.739Z,13.80
2023-04-01T01:22:19.767Z,12.50
2023-04-01T01:25:19.191Z,14.60
2023-04-01T01:28:30.968Z,12.30
2023-04-01T01:31:22.323Z,13.40
2023-04-01T01:34:09.990Z,12.20
2023-04-01T01:36:41.677Z,12.90
2023-04-01T01:39:15.111Z,13.00
2023-04-01T01:41:46.372Z,11.60
2023-04-01T01:44:17.432Z,12.30
2023-04-01T01:46:47.118Z,12.80
2023-04-01T01:49:18.263Z,14.00
2023-04-01T01:51:46.998Z,12.80
2023-04-01T01:54:19.068Z,11.80
2023-04-01T01:56:52.924Z,12.50
2023-04-01T01:59:23.548Z,13.60
2023-04-01T02:01:56.962Z,13.50
2023-04-01T02:04:26.938Z,11.00
2023-04-01T02:07:04.705Z,11.90
2023-04-01T02:09:35.397Z,11.20
2023-04-01T02:12:10.894Z,10.90
2023-04-01T02:14:55.955Z,12.30
2023-04-01T02:17:36.950Z,10.90
2023-04-01T02:20:22.561Z,10.10
2023-04-01T02:22:55.935Z,11.80
2023-04-01T02:25:32.324Z,10.80
2023-04-01T02:28:02.036Z,11.10
2023-04-01T02:30:34.968Z,11.90
2023-04-01T02:33:06.752Z,11.70
2023-04-01T02:35:38.660Z,12.20
2023-04-01T02:38:10.370Z,10.90
2023-04-01T02:43:22.595Z,10.60
2023-04-01T02:45:51.211Z,12.10
2023-04-01T02:48:20.290Z,13.50
2023-04-01T02:50:49.220Z,12.40
2023-04-01T02:53:18.603Z,14.00
2023-04-01T02:55:47.432Z,12.80
2023-04-01T02:58:16.120Z,14.20
2023-04-01T03:00:44.859Z,14.00
2023-04-01T03:03:14.816Z,13.80
2023-04-01T03:05:43.615Z,14.70
2023-04-01T03:08:13.018Z,15.60
2023-04-01T03:10:41.759Z,15.50
2023-04-01T03:13:10.477Z,16.60
2023-04-01T03:15:39.157Z,15.20
2023-04-01T03:18:07.742Z,14.60
2023-04-01T03:20:37.200Z,14.00
2023-04-01T03:25:35.107Z,14.10
2023-04-01T03:28:04.561Z,16.90
2023-04-01T03:30:33.141Z,18.40
2023-04-01T03:33:02.181Z,23.10
2023-04-01T03:35:34.646Z,28.50
2023-04-01T03:38:04.578Z,22.70
2023-04-01T03:40:34.327Z,20.00
2023-04-01T03:43:03.299Z,18.80
2023-04-01T03:45:32.181Z,15.40
2023-04-01T03:48:01.055Z,14.50
2023-04-01T03:50:31.203Z,16.00
2023-04-01T03:53:01.103Z,17.80
2023-04-01T03:55:30.005Z,17.40
2023-04-01T03:57:58.858Z,15.70
2023-04-01T04:00:27.485Z,15.30
2023-04-01T04:02:59.843Z,16.60
2023-04-01T04:05:33.093Z,18.30
2023-04-01T04:08:02.934Z,17.70
2023-04-01T04:10:31.716Z,17.00
2023-04-01T04:13:00.403Z,14.70
2023-04-01T04:15:30.966Z,15.50
2023-04-01T04:17:59.973Z,15.00
2023-04-01T04:20:28.545Z,15.30
2023-04-01T04:22:57.380Z,17.20
2023-04-01T04:25:26.116Z,15.80
2023-04-01T04:27:54.938Z,16.60
2023-04-01T04:30:24.884Z,16.40
2023-04-01T04:32:53.727Z,16.50
2023-04-01T04:35:22.404Z,16.40
2023-04-01T04:37:51.131Z,15.90
2023-04-01T04:40:20.944Z,15.50
2023-04-01T04:42:49.545Z,16.70
2023-04-01T04:45:18.433Z,16.90
2023-04-01T04:47:54.854Z,16.00
2023-04-01T04:50:25.163Z,17.70
2023-04-01T04:52:53.845Z,16.10
2023-04-01T04:55:23.313Z,14.40
2023-04-01T04:58:00.656Z,15.30
2023-04-01T05:00:29.501Z,15.40
2023-04-01T05:03:01.926Z,15.00
2023-04-01T05:05:31.281Z,15.30
2023-04-01T05:10:29.530Z,15.50
2023-04-01T05:12:59.184Z,15.20
2023-04-01T05:15:27.889Z,15.90
2023-04-01T05:20:26.302Z,14.00
2023-04-01T05:22:58.754Z,14.80
2023-04-01T05:25:27.554Z,14.20
2023-04-01T05:27:56.595Z,16.50
2023-04-01T05:30:25.760Z,15.60
2023-04-01T05:33:04.218Z,15.80
2023-04-01T05:35:33.290Z,16.50
2023-04-01T05:38:02.795Z,16.20
2023-04-01T05:40:33.670Z,14.70
2023-04-01T05:43:02.264Z,13.90
2023-04-01T05:45:31.324Z,14.80
2023-04-01T05:48:15.138Z,14.90
2023-04-01T05:50:43.800Z,15.10
2023-04-01T05:53:13.308Z,13.80
2023-04-01T05:55:44.563Z,16.30
2023-04-01T05:58:13.297Z,17.80
2023-04-01T06:00:42.697Z,17.10
2023-04-01T06:03:11.727Z,13.80
2023-04-01T06:05:44.647Z,13.80
2023-04-01T06:08:19.643Z,16.30
2023-04-01T06:11:03.179Z,16.20
2023-04-01T06:14:19.669Z,16.40
2023-04-01T06:17:24.030Z,15.80
2023-04-01T06:20:24.394Z,15.90
2023-04-01T06:23:19.872Z,14.80
2023-04-01T06:26:00.688Z,13.10
2023-04-01T06:28:48.577Z,14.20
2023-04-01T06:31:25.996Z,14.50
2023-04-01T06:34:48.712Z,14.90
2023-04-01T06:37:44.460Z,12.20
2023-04-01T06:40:46.508Z,13.40
2023-04-01T06:43:42.063Z,13.30
2023-04-01T06:46:42.278Z,12.50
2023-04-01T06:50:08.790Z,13.70
2023-04-01T06:53:14.101Z,13.20
2023-04-01T06:56:38.737Z,14.10
2023-04-01T06:59:26.499Z,14.20
2023-04-01T07:02:05.931Z,14.00
2023-04-01T07:07:36.814Z,12.50
2023-04-01T07:10:18.201Z,16.10
2023-04-01T07:14:01.312Z,13.40
2023-04-01T07:17:01.399Z,13.20
2023-04-01T07:19:58.859Z,15.80
2023-04-01T07:22:38.074Z,17.50
2023-04-01T07:25:26.482Z,16.80
2023-04-01T07:28:18.202Z,15.20
2023-04-01T07:30:54.031Z,16.10
2023-04-01T07:33:54.756Z,16.00
2023-04-01T07:37:03.676Z,18.30
2023-04-01T07:40:00.917Z,17.00
2023-04-01T07:42:46.046Z,15.50
2023-04-01T07:45:26.955Z,13.90
2023-04-01T07:48:32.441Z,15.10
2023-04-01T07:51:36.277Z,13.30
2023-04-01T07:54:15.791Z,13.10
2023-04-01T07:57:20.197Z,15.40
2023-04-01T08:00:42.612Z,13.20
2023-04-01T08:03:33.904Z,13.40
2023-04-01T08:06:48.800Z,12.70
2023-04-01T08:09:55.150Z,13.30
2023-04-01T08:13:42.414Z,14.00
2023-04-01T08:16:59.023Z,12.60
2023-04-01T08:20:31.455Z,12.60
2023-04-01T08:23:13.969Z,14.80
2023-04-01T08:25:57.355Z,17.00
2023-04-01T08:28:46.208Z,14.70
2023-04-01T08:31:33.442Z,15.30
2023-04-01T08:34:09.678Z,16.10
2023-04-01T08:36:48.249Z,17.80
2023-04-01T08:39:31.541Z,16.50
2023-04-01T08:42:44.665Z,13.10
2023-04-01T08:46:01.943Z,15.30
2023-04-01T08:49:04.750Z,15.80
2023-04-01T08:52:20.172Z,16.50
2023-04-01T08:55:16.819Z,16.30
2023-04-01T08:59:00.946Z,18.00
2023-04-01T09:02:00.106Z,15.40
2023-04-01T09:06:22.168Z,15.00
2023-04-01T09:09:03.626Z,18.80
2023-04-01T09:12:18.954Z,16.90
2023-04-01T09:15:18.572Z,14.80
2023-04-01T09:21:24.835Z,14.30
2023-04-01T09:24:20.940Z,13.90
2023-04-01T09:27:15.265Z,14.10
2023-04-01T09:29:57.020Z,16.00
2023-04-01T09:32:46.991Z,14.70
2023-04-01T09:35:42.615Z,13.60
2023-04-01T09:38:35.357Z,11.90
2023-04-01T09:41:31.797Z,15.90
2023-04-01T09:44:37.290Z,14.40
2023-04-01T09:47:39.055Z,13.80
2023-04-01T09:50:28.527Z,12.90
2023-04-01T09:53:38.652Z,13.40
2023-04-01T09:56:19.928Z,14.00
2023-04-01T09:58:54.605Z,14.80
2023-04-01T10:02:11.054Z,15.40
2023-04-01T10:05:22.716Z,15.60
2023-04-01T10:08:31.707Z,17.80
2023-04-01T10:11:22.682Z,15.40
2023-04-01T10:14:18.607Z,16.10
2023-04-01T10:17:12.401Z,16.80
2023-04-01T10:20:20.811Z,16.30
2023-04-01T10:23:27.679Z,16.90
2023-04-01T10:26:25.540Z,14.60
2023-04-01T10:29:26.527Z,14.10
2023-04-01T10:32:43.578Z,14.70
2023-04-01T10:35:40.738Z,15.40
2023-04-01T10:38:46.579Z,14.20
2023-04-01T10:41:18.279Z,14.20
2023-04-01T10:45:04.511Z,16.90
2023-04-01T10:48:04.555Z,13.60
2023-04-01T10:51:24.888Z,15.50
2023-04-01T10:54:08.906Z,18.60
2023-04-01T10:57:58.234Z,16.00
2023-04-01T11:01:13.813Z,14.40
2023-04-01T11:04:10.084Z,17.50
2023-04-01T11:07:09.104Z,15.50
2023-04-01T11:13:28.965Z,15.80
2023-04-01T11:16:00.845Z,14.70
2023-04-01T11:19:05.882Z,14.10
2023-04-01T11:21:54.697Z,13.00
2023-04-01T11:25:20.593Z,11.20
2023-04-01T11:28:39.176Z,11.90
2023-04-01T11:31:41.876Z,12.80
2023-04-01T11:35:03.290Z,11.80
2023-04-01T11:38:03.598Z,11.10
2023-04-01T11:41:26.797Z,11.80
2023-04-01T11:45:17.256Z,12.30
2023-04-01T11:48:36.045Z,10.80
2023-04-01T11:51:16.949Z,12.80
2023-04-01T11:54:16.381Z,14.20
2023-04-01T11:57:24.959Z,11.80
2023-04-01T12:00:04.073Z,13.40
2023-04-01T12:03:25.154Z,14.50
2023-04-01T12:06:25.299Z,11.00
2023-04-01T12:09:06.201Z,14.80
2023-04-01T12:11:42.238Z,14.60
2023-04-01T12:14:44.522Z,12.80
2023-04-01T12:17:45.275Z,12.10
2023-04-01T12:20:14.096Z,11.30
2023-04-01T12:23:00.593Z,11.80
2023-04-01T12:26:04.032Z,12.30
2023-04-01T12:28:46.112Z,11.80
2023-04-01T12:32:05.363Z,14.80
2023-04-01T12:37:19.308Z,12.80
2023-04-01T12:39:51.198Z,13.10
2023-04-01T12:42:48.741Z,13.60
2023-04-01T12:45:56.716Z,13.50
2023-04-01T12:49:01.300Z,11.80
2023-04-01T12:51:39.712Z,15.00
2023-04-01T12:54:46.476Z,15.00
2023-04-01T12:57:27.162Z,14.00
2023-04-01T13:00:33.043Z,12.30
2023-04-01T13:03:29.142Z,11.80
2023-04-01T13:06:45.220Z,12.00
2023-04-01T13:09:18.340Z,13.50
2023-04-01T13:12:21.413Z,14.80
2023-04-01T13:15:11.933Z,12.00
2023-04-01T13:17:55.409Z,12.20
2023-04-01T13:21:09.435Z,13.80
2023-04-01T13:23:59.115Z,13.50
2023-04-01T13:26:39.845Z,13.70
2023-04-01T13:29:14.271Z,12.20
2023-04-01T13:31:58.036Z,11.70
2023-04-01T13:34:53.764Z,12.80
2023-04-01T13:37:28.966Z,15.10
2023-04-01T13:40:27.424Z,12.50
2023-04-01T13:43:38.650Z,11.50
2023-04-01T13:46:16.989Z,13.80
2023-04-01T13:48:57.740Z,11.60
2023-04-01T13:52:04.332Z,10.50
2023-04-01T13:55:03.341Z,12.90
2023-04-01T13:58:21.571Z,15.40
2023-04-01T14:01:20.585Z,12.30
2023-04-01T14:04:41.597Z,11.20
2023-04-01T14:07:10.280Z,10.80
2023-04-01T14:10:10.582Z,11.90
2023-04-01T14:13:40.957Z,10.90
2023-04-01T14:16:35.627Z,12.70
2023-04-01T14:19:29.083Z,12.90
2023-04-01T14:22:24.318Z,12.50
2023-04-01T14:25:23.621Z,15.30
2023-04-01T14:27:58.018Z,15.40
2023-04-01T14:31:13.992Z,12.10
2023-04-01T14:34:45.077Z,10.90
2023-04-01T14:37:49.913Z,10.40
2023-04-01T14:40:40.871Z,12.80
2023-04-01T14:43:30.062Z,10.80
2023-04-01T14:47:06.046Z,10.80
2023-04-01T14:49:48.668Z,13.40
2023-04-01T14:52:35.502Z,11.80
2023-04-01T14:55:29.529Z,11.50
2023-04-01T14:58:20.030Z,12.30
2023-04-01T15:01:13.186Z,12.30
2023-04-01T15:03:56.623Z,11.80
2023-04-01T15:06:53.722Z,12.70
2023-04-01T15:09:32.381Z,12.60
2023-04-01T15:12:25.761Z,11.90
2023-04-01T15:15:03.928Z,11.80
2023-04-01T15:17:44.198Z,12.80
2023-04-01T15:20:54.883Z,12.10
2023-04-01T15:23:41.858Z,14.80
2023-04-01T15:26:58.757Z,13.80
2023-04-01T15:30:18.981Z,13.20
2023-04-01T15:33:10.723Z,12.20
2023-04-01T15:36:01.547Z,13.10
2023-04-01T15:38:52.298Z,13.70
2023-04-01T15:41:36.652Z,15.00
2023-04-01T15:44:05.308Z,13.50
2023-04-01T15:46:58.317Z,14.50
2023-04-01T15:49:43.574Z,12.30
2023-04-01T15:52:26.297Z,15.30
2023-04-01T15:55:22.210Z,13.70
2023-04-01T15:58:43.399Z,15.60
2023-04-01T16:01:43.910Z,16.60
2023-04-01T16:04:43.750Z,14.30
2023-04-01T16:07:38.194Z,17.40
2023-04-01T16:10:28.545Z,15.90
2023-04-01T16:13:34.176Z,15.20
2023-04-01T16:16:27.198Z,16.70
2023-04-01T16:19:24.216Z,16.10
2023-04-01T16:21:59.402Z,15.10
2023-04-01T16:24:52.105Z,15.10
2023-04-01T16:27:23.479Z,13.50
2023-04-01T16:30:05.027Z,15.40
2023-04-01T16:32:52.356Z,16.00
2023-04-01T16:35:56.997Z,15.20
2023-04-01T16:38:51.593Z,14.80
2023-04-01T16:41:33.139Z,15.00
2023-04-01T16:44:20.644Z,13.60
2023-04-01T16:47:14.339Z,14.60
2023-04-01T16:49:59.637Z,13.70
2023-04-01T16:52:44.505Z,15.40
2023-04-01T16:55:22.453Z,15.10
2023-04-01T16:58:00.847Z,15.20
2023-04-01T17:00:41.799Z,12.70
2023-04-01T17:03:27.206Z,15.20
2023-04-01T17:06:14.500Z,14.30
2023-04-01T17:09:15.007Z,15.70
2023-04-01T17:11:43.906Z,16.20
2023-04-01T17:14:46.688Z,15.80
2023-04-01T17:17:49.131Z,16.30
2023-04-01T17:20:39.074Z,18.90
2023-04-01T17:23:33.348Z,16.90
2023-04-01T17:26:11.492Z,23.20
2023-04-01T17:28:56.098Z,17.40
2023-04-01T17:31:27.371Z,17.80
2023-04-01T17:34:05.187Z,22.00
2023-04-01T17:36:53.977Z,18.30
2023-04-01T17:39:41.688Z,17.60
2023-04-01T17:42:25.954Z,19.10
2023-04-01T17:45:24.151Z,16.20
2023-04-01T17:48:34.628Z,16.00
2023-04-01T17:51:44.883Z,17.90
2023-04-01T17:54:33.238Z,16.90
2023-04-01T17:58:14.113Z,19.10
2023-04-01T18:01:03.378Z,17.50
2023-04-01T18:04:12.210Z,17.40
2023-04-01T18:06:51.028Z,16.90
2023-04-01T18:09:43.387Z,16.60
2023-04-01T18:12:39.784Z,16.00
2023-04-01T18:16:07.809Z,15.50
2023-04-01T18:18:58.324Z,16.00
2023-04-01T18:21:38.385Z,16.70
2023-04-01T18:24:21.712Z,16.50
2023-04-01T18:27:19.250Z,20.70
2023-04-01T18:30:09.000Z,19.40
2023-04-01T18:33:05.704Z,17.90
2023-04-01T18:36:27.864Z,16.70
2023-04-01T18:39:04.663Z,16.60
2023-04-01T18:42:06.079Z,16.00
2023-04-01T18:45:16.980Z,18.90
2023-04-01T18:48:14.748Z,19.90
2023-04-01T18:51:11.830Z,20.20
2023-04-01T18:54:23.493Z,19.20
2023-04-01T18:56:52.333Z,19.20
2023-04-01T18:59:40.819Z,18.30
2023-04-01T19:03:18.108Z,17.90
2023-04-01T19:05:51.077Z,17.90
2023-04-01T19:08:24.928Z,17.00
2023-04-01T19:11:11.947Z,18.20
2023-04-01T19:13:43.321Z,19.40
2023-04-01T19:16:33.487Z,19.10
2023-04-01T19:19:40.579Z,19.70
2023-04-01T19:22:41.644Z,17.30
2023-04-01T19:25:39.321Z,17.20
2023-04-01T19:28:50.034Z,16.90
2023-04-01T19:32:06.782Z,17.80
2023-04-01T19:35:35.478Z,17.20
2023-04-01T19:38:54.650Z,15.90
2023-04-01T19:41:32.416Z,17.80
2023-04-01T19:44:16.060Z,17.10
2023-04-01T19:46:59.739Z,17.20
2023-04-01T19:49:31.181Z,18.60
2023-04-01T19:52:32.765Z,15.90
2023-04-01T19:55:33.463Z,14.50
2023-04-01T19:58:14.043Z,15.20
2023-04-01T20:00:54.148Z,15.40
2023-04-01T20:03:56.486Z,18.70
2023-04-01T20:06:33.813Z,16.50
2023-04-01T20:09:49.689Z,16.70
2023-04-01T20:12:43.884Z,14.70
2023-04-01T20:15:57.192Z,16.20
2023-04-01T20:18:58.412Z,16.10
2023-04-01T20:21:48.919Z,14.30
2023-04-01T20:24:47.831Z,15.30
2023-04-01T20:27:33.610Z,16.90
2023-04-01T20:30:29.728Z,17.50
2023-04-01T20:33:27.465Z,16.60
2023-04-01T20:36:20.531Z,16.00
2023-04-01T20:39:26.096Z,19.80
2023-04-01T20:42:13.884Z,15.00
2023-04-01T20:45:22.666Z,17.90
2023-04-01T20:48:56.181Z,18.60
2023-04-01T20:51:31.424Z,16.60
2023-04-01T20:54:22.160Z,18.90
2023-04-01T20:57:24.785Z,17.30
2023-04-01T21:00:01.153Z,16.80
2023-04-01T21:03:28.227Z,15.80
2023-04-01T21:06:50.358Z,18.80
2023-04-01T21:09:24.624Z,18.90
2023-04-01T21:12:28.656Z,20.20
2023-04-01T21:15:13.711Z,18.70
2023-04-01T21:18:08.269Z,22.60
2023-04-01T21:21:13.767Z,19.50
2023-04-01T21:23:51.319Z,19.90
2023-04-01T21:26:34.992Z,20.80
2023-04-01T21:29:52.743Z,16.40
2023-04-01T21:32:47.053Z,18.70
2023-04-01T21:35:53.742Z,17.10
2023-04-01T21:38:40.190Z,17.50
2023-04-01T21:41:21.289Z,19.10
2023-04-01T21:44:19.905Z,16.30
2023-04-01T21:47:20.667Z,16.30
2023-04-01T21:50:40.983Z,15.20
2023-04-01T21:53:28.799Z,15.20
2023-04-01T21:56:48.487Z,14.70
2023-04-01T21:59:49.046Z,16.20
2023-04-01T22:02:53.977Z,17.50
2023-04-01T22:05:43.689Z,16.20
2023-04-01T22:08:36.446Z,14.10
2023-04-01T22:11:46.208Z,15.40
2023-04-01T22:14:35.090Z,16.90
2023-04-01T22:17:45.206Z,15.30
2023-04-01T22:21:14.438Z,17.40
2023-04-01T22:24:21.402Z,15.50
2023-04-01T22:27:05.055Z,16.20
2023-04-01T22:30:00.898Z,16.30
2023-04-01T22:32:36.761Z,13.50
2023-04-01T22:35:22.736Z,13.80
2023-04-01T22:38:06.055Z,15.30
2023-04-01T22:40:53.056Z,14.00
2023-04-01T22:43:35.761Z,14.40
2023-04-01T22:46:10.099Z,13.90
2023-04-01T22:48:48.982Z,15.80
2023-04-01T22:51:25.585Z,15.40
2023-04-01T22:54:19.637Z,16.80
2023-04-01T22:56:57.927Z,16.10
2023-04-01T22:59:47.996Z,14.90
2023-04-01T23:02:43.457Z,16.10
2023-04-01T23:05:18.676Z,14.00
2023-04-01T23:07:59.156Z,15.00
2023-04-01T23:10:46.667Z,16.50
2023-04-01T23:13:26.941Z,17.10
2023-04-01T23:15:56.598Z,14.40
2023-04-01T23:18:46.916Z,16.30
2023-04-01T23:21:48.147Z,14.70
2023-04-01T23:24:27.971Z,15.70
2023-04-01T23:27:12.001Z,14.80
2023-04-01T23:29:44.259Z,14.40
2023-04-01T23:32:20.534Z,16.70
2023-04-01T23:35:01.071Z,14.40
2023-04-01T23:37:29.812Z,17.20
2023-04-01T23:39:59.722Z,15.60
2023-04-01T23:42:42.130Z,14.10
2023-04-01T23:45:18.659Z,15.20
2023-04-01T23:47:50.834Z,16.70
2023-04-01T23:50:26.816Z,13.70
2023-04-01T23:53:25.325Z,13.60
2023-04-01T23:55:55.337Z,13.40
2023-04-01T23:58:42.003Z,14.00
